West Chester, Iowa
Current Conditions -  °F | °C
As of 12:35 PM on Thursday 27 Nov 2014 (Local Time) from KAWG Reporting Station
Clear Clear  
Wind Chill: -21°   Ceiling: Unl
Heat Index: -12°   Visibility: 10mi
Dew Point: -15°   Wind: 15mph
Humidity: 79%   Direction: 280°W
Pressure: 30.48"   Gusts: NA
Location:  41.34°N, 91.82°W
Report Text: KAWG 271835Z AUTO 28013KT 10SM CLR M12/M15 A3048 RMK AO2
Loading
Personal Weather Stations






























Interactive Weather Map New forecast layout! Learn more

10-Day Weather Forecast

Advertisements
Track Severe Weather on mobile